Time;durP1;ratioP1;P1;durP2;ratioP2;P2;SDS_P1;SDS_P2;PMS_P1;PMS_P2;Temp;Humidity;BMP_temperature;BMP_pressure;BME280_temperature;BME280_humidity;BME280_pressure;Samples;Min_cycle;Max_cycle;Signal;HPM_P1;HPM_P2
2022/04/18 00:02:24;;;;;;;16.00;10.15;;;9.40;65.50;;;;;;4992312;28;20038;-90
2022/04/18 00:04:49;;;;;;;15.55;10.10;;;9.30;66.10;;;;;;4992366;28;20038;-90
2022/04/18 00:07:15;;;;;;;15.45;9.88;;;9.30;66.40;;;;;;4989771;28;20034;-89
2022/04/18 00:09:41;;;;;;;17.33;10.43;;;9.30;66.50;;;;;;4991785;28;20085;-89
2022/04/18 00:12:07;;;;;;;16.40;10.07;;;9.20;66.70;;;;;;4991907;28;20415;-90
2022/04/18 00:14:33;;;;;;;16.48;10.13;;;9.20;66.70;;;;;;4992239;28;20085;-90
2022/04/18 00:16:59;;;;;;;17.05;10.18;;;9.20;66.80;;;;;;4992233;28;20038;-89
2022/04/18 00:19:25;;;;;;;17.42;9.77;;;9.20;67.00;;;;;;4973907;28;20042;-89
2022/04/18 00:21:51;;;;;;;15.20;9.80;;;9.20;67.10;;;;;;4991499;28;20495;-90
2022/04/18 00:24:19;;;;;;;16.88;9.73;;;9.10;67.20;;;;;;4992010;28;20085;-90
2022/04/18 00:26:45;;;;;;;16.50;9.85;;;9.10;67.60;;;;;;4991887;28;20073;-89
2022/04/18 00:29:11;;;;;;;17.10;10.60;;;9.10;68.10;;;;;;4988723;28;20065;-89
2022/04/18 00:31:37;;;;;;;18.70;10.25;;;9.00;68.30;;;;;;4975531;28;20042;-90
2022/04/18 00:34:03;;;;;;;15.77;9.65;;;9.00;68.50;;;;;;4975498;28;20042;-89
2022/04/18 00:36:29;;;;;;;15.45;10.02;;;9.00;68.70;;;;;;4991395;28;20073;-89
2022/04/18 00:38:54;;;;;;;19.02;9.77;;;8.90;69.00;;;;;;4973792;28;20073;-90
2022/04/18 00:41:20;;;;;;;15.93;9.65;;;8.90;69.00;;;;;;4990931;28;20042;-90
2022/04/18 00:43:48;;;;;;;16.98;10.40;;;8.90;69.30;;;;;;4991824;28;20034;-89
2022/04/18 00:46:16;;;;;;;16.52;9.95;;;8.90;70.00;;;;;;4991845;28;20408;-89
2022/04/18 00:48:42;;;;;;;18.77;10.32;;;8.80;70.60;;;;;;4991276;28;20042;-89
2022/04/18 00:51:11;;;;;;;18.88;10.55;;;8.80;70.50;;;;;;4979929;28;20037;-89
2022/04/18 00:53:37;;;;;;;17.23;10.00;;;8.80;70.90;;;;;;4991340;28;20084;-90
2022/04/18 00:56:08;;;;;;;19.48;10.93;;;8.80;70.70;;;;;;4975481;28;20042;-89
2022/04/18 00:58:35;;;;;;;18.27;10.07;;;8.70;71.20;;;;;;4991423;28;20149;-89
2022/04/18 01:01:01;;;;;;;18.30;10.93;;;8.70;71.20;;;;;;4990979;28;20093;-89
2022/04/18 01:03:30;;;;;;;17.73;9.93;;;8.70;71.20;;;;;;4991442;28;20384;-89
2022/04/18 01:05:57;;;;;;;14.63;10.10;;;8.70;71.60;;;;;;4975221;28;20038;-89
2022/04/18 01:08:24;;;;;;;16.55;10.38;;;8.60;71.70;;;;;;4991094;28;20037;-89
2022/04/18 01:10:51;;;;;;;17.20;10.52;;;8.60;72.00;;;;;;4985324;28;20509;-89
2022/04/18 01:13:17;;;;;;;17.35;10.52;;;8.60;72.40;;;;;;4976588;28;20074;-89
2022/04/18 01:15:42;;;;;;;16.75;10.25;;;8.50;73.00;;;;;;4991141;28;20073;-89
2022/04/18 01:18:08;;;;;;;19.05;10.77;;;8.50;73.10;;;;;;4990873;28;20045;-89
2022/04/18 01:20:35;;;;;;;18.52;11.05;;;8.40;73.20;;;;;;4990667;28;20042;-89
2022/04/18 01:23:01;;;;;;;16.98;10.40;;;8.40;73.90;;;;;;4979305;28;20057;-89
2022/04/18 01:30:56;;;;;;;18.33;10.68;;;8.30;74.90;;;;;;4988339;28;20053;-90
2022/04/18 01:33:22;;;;;;;16.42;10.20;;;8.30;75.40;;;;;;4973129;28;20022;-89
2022/04/18 01:35:47;;;;;;;15.90;9.80;;;8.30;75.70;;;;;;4975102;28;20488;-89
2022/04/18 01:38:13;;;;;;;15.48;10.27;;;8.20;76.00;;;;;;4974678;28;20034;-90
2022/04/18 01:40:39;;;;;;;17.83;10.85;;;8.20;76.60;;;;;;4989705;28;20088;-89
2022/04/18 01:43:08;;;;;;;16.67;10.52;;;8.20;76.50;;;;;;4990491;28;20046;-89
2022/04/18 01:45:34;;;;;;;18.75;10.25;;;8.20;77.00;;;;;;4991156;28;20522;-89
2022/04/18 01:48:00;;;;;;;18.52;11.07;;;8.10;77.30;;;;;;4974157;28;20045;-89
2022/04/18 01:50:26;;;;;;;16.67;10.60;;;8.10;77.70;;;;;;4990283;28;20440;-89
2022/04/18 01:52:52;;;;;;;19.58;10.75;;;8.00;78.10;;;;;;4989891;28;20660;-89
2022/04/18 01:55:17;;;;;;;21.73;11.70;;;8.00;78.30;;;;;;4990756;28;20041;-89
2022/04/18 01:57:43;;;;;;;21.05;11.80;;;7.90;78.40;;;;;;4974578;28;20070;-89
2022/04/18 02:00:09;;;;;;;20.30;12.13;;;7.90;79.30;;;;;;4990300;28;20047;-89
2022/04/18 02:02:35;;;;;;;24.35;14.02;;;7.90;79.60;;;;;;4990403;28;20416;-89
2022/04/18 02:05:00;;;;;;;23.38;14.20;;;7.80;80.00;;;;;;4990732;28;20049;-89
2022/04/18 02:07:28;;;;;;;21.85;13.48;;;7.80;81.00;;;;;;4991117;28;20054;-89
2022/04/18 02:09:54;;;;;;;21.40;12.60;;;7.80;81.00;;;;;;4989890;28;20042;-89
2022/04/18 02:12:20;;;;;;;19.80;11.88;;;7.80;80.70;;;;;;4974786;28;20621;-89
2022/04/18 02:14:46;;;;;;;18.55;11.20;;;7.80;81.40;;;;;;4990631;28;20053;-89
2022/04/18 02:17:11;;;;;;;19.10;11.85;;;7.70;81.00;;;;;;4974104;28;20093;-89
2022/04/18 02:19:37;;;;;;;19.00;11.68;;;7.70;80.70;;;;;;4972707;28;20073;-89
2022/04/18 02:22:02;;;;;;;18.17;11.73;;;7.70;80.90;;;;;;4990489;28;20045;-90
2022/04/18 02:24:28;;;;;;;19.13;10.98;;;7.70;81.10;;;;;;4974285;28;20117;-90
2022/04/18 02:26:54;;;;;;;20.05;11.50;;;7.70;81.20;;;;;;4974422;28;20082;-89
2022/04/18 02:29:20;;;;;;;19.40;11.82;;;7.60;81.30;;;;;;4973778;28;20034;-89
2022/04/18 02:34:29;;;;;;;18.27;11.15;;;7.60;81.40;;;;;;4990169;28;20065;-89
2022/04/18 02:36:55;;;;;;;19.85;10.98;;;7.60;81.20;;;;;;4974285;28;20042;-89
2022/04/18 02:39:20;;;;;;;17.92;10.60;;;7.50;81.30;;;;;;4990071;28;20042;-89
2022/04/18 02:41:46;;;;;;;19.05;11.50;;;7.50;81.70;;;;;;4989035;28;20042;-90
2022/04/18 02:44:11;;;;;;;18.80;11.38;;;7.50;82.10;;;;;;4990611;28;20046;-89
2022/04/18 02:46:37;;;;;;;19.30;11.15;;;7.50;82.10;;;;;;4973972;28;20038;-89
2022/04/18 02:49:03;;;;;;;17.67;11.07;;;7.50;82.60;;;;;;4989774;28;20030;-89
2022/04/18 02:51:28;;;;;;;21.10;12.18;;;7.40;82.70;;;;;;4970326;28;20467;-89
2022/04/18 02:53:54;;;;;;;16.83;11.05;;;7.40;82.80;;;;;;4984685;28;20045;-89
2022/04/18 02:56:20;;;;;;;18.73;11.20;;;7.40;82.70;;;;;;4994145;28;20053;-89
2022/04/18 02:58:46;;;;;;;18.48;11.35;;;7.40;83.20;;;;;;4977461;28;20495;-90
2022/04/18 03:01:12;;;;;;;22.02;12.48;;;7.30;83.30;;;;;;4993180;28;20034;-89
2022/04/18 03:03:38;;;;;;;20.60;12.60;;;7.30;84.20;;;;;;4984339;28;20089;-89
2022/04/18 03:06:05;;;;;;;22.38;13.45;;;7.30;83.90;;;;;;4993656;28;20495;-89
2022/04/18 03:08:31;;;;;;;20.17;12.93;;;7.30;84.20;;;;;;4977351;28;20639;-89
2022/04/18 03:11:04;;;;;;;21.77;12.82;;;7.20;84.20;;;;;;4993217;28;20074;-90
2022/04/18 03:13:32;;;;;;;23.90;13.70;;;7.20;84.50;;;;;;4980005;28;20050;-89
2022/04/18 03:15:58;;;;;;;21.08;13.32;;;7.20;84.50;;;;;;4976887;28;20038;-89
2022/04/18 03:18:24;;;;;;;23.35;13.55;;;7.20;84.70;;;;;;4993446;28;20180;-90
2022/04/18 03:20:50;;;;;;;21.55;12.77;;;7.10;84.80;;;;;;4993093;28;20563;-89
2022/04/18 03:23:15;;;;;;;22.50;12.18;;;7.10;85.30;;;;;;4967810;28;20562;-90
2022/04/18 03:25:41;;;;;;;22.00;13.10;;;7.10;85.50;;;;;;4976125;28;20514;-90
2022/04/18 03:28:06;;;;;;;23.40;13.07;;;7.10;85.60;;;;;;4993109;28;20491;-89
2022/04/18 03:30:32;;;;;;;23.40;12.27;;;7.00;84.90;;;;;;4974729;28;20034;-90
2022/04/18 03:32:57;;;;;;;19.08;11.50;;;7.00;85.30;;;;;;4993200;28;20045;-90
2022/04/18 03:35:23;;;;;;;18.63;11.32;;;7.00;85.80;;;;;;4993171;28;20053;-90
2022/04/18 03:40:34;;;;;;;19.27;10.75;;;7.00;86.00;;;;;;4991038;28;20180;-88
2022/04/18 03:42:59;;;;;;;19.88;11.68;;;7.00;86.00;;;;;;5005950;28;20125;-90
2022/04/18 03:45:25;;;;;;;20.17;11.60;;;7.00;86.80;;;;;;5000278;28;20038;-89
2022/04/18 03:47:51;;;;;;;21.10;11.55;;;7.00;87.00;;;;;;4994227;28;20566;-89
2022/04/18 03:50:16;;;;;;;19.35;10.93;;;7.00;87.00;;;;;;4990421;28;20081;-89
2022/04/18 03:52:42;;;;;;;16.58;10.05;;;6.90;86.80;;;;;;4981340;28;20046;-89
2022/04/18 03:55:08;;;;;;;16.48;10.88;;;6.90;87.80;;;;;;4992570;28;20052;-89
2022/04/18 03:57:33;;;;;;;18.08;10.20;;;6.90;88.10;;;;;;4976591;28;20073;-89
2022/04/18 03:59:59;;;;;;;18.25;10.35;;;6.90;88.30;;;;;;4992575;28;20154;-89
2022/04/18 04:02:24;;;;;;;18.10;11.40;;;6.90;88.50;;;;;;4991028;28;20043;-89
2022/04/18 04:04:50;;;;;;;17.10;10.48;;;6.90;89.00;;;;;;4975729;28;20154;-89
2022/04/18 04:07:15;;;;;;;16.25;9.73;;;6.80;89.30;;;;;;4987209;28;20039;-89
2022/04/18 04:09:41;;;;;;;16.80;10.23;;;6.80;89.40;;;;;;4974457;28;20026;-89
2022/04/18 04:12:07;;;;;;;20.20;10.82;;;6.80;89.40;;;;;;4990930;28;20590;-89
2022/04/18 04:14:33;;;;;;;20.88;10.57;;;6.80;90.00;;;;;;4991760;28;20172;-88
2022/04/18 04:16:59;;;;;;;15.93;10.23;;;6.80;90.00;;;;;;4992182;28;20384;-89
2022/04/18 04:19:25;;;;;;;18.92;11.27;;;6.70;90.10;;;;;;4991940;28;20551;-89
2022/04/18 04:21:50;;;;;;;17.85;10.90;;;6.70;90.20;;;;;;4975159;28;20031;-89
2022/04/18 04:24:16;;;;;;;21.13;11.80;;;6.70;90.10;;;;;;4992239;28;20057;-89
2022/04/18 04:26:44;;;;;;;17.40;10.50;;;6.70;90.20;;;;;;4974392;28;20045;-89
2022/04/18 04:29:09;;;;;;;18.48;10.90;;;6.70;90.40;;;;;;4986236;28;20060;-89
2022/04/18 04:31:35;;;;;;;20.48;11.10;;;6.70;90.60;;;;;;4975709;28;20561;-89
2022/04/18 04:34:01;;;;;;;20.23;11.13;;;6.60;90.60;;;;;;4991760;28;20050;-89
2022/04/18 04:36:26;;;;;;;18.90;10.75;;;6.60;90.80;;;;;;4992050;28;20112;-88
2022/04/18 04:38:52;;;;;;;16.60;10.23;;;6.60;91.20;;;;;;4973306;28;20125;-89
2022/04/18 04:41:18;;;;;;;17.58;10.95;;;6.60;91.10;;;;;;4974757;28;20129;-89
2022/04/18 04:43:43;;;;;;;18.75;11.18;;;6.60;91.10;;;;;;4991763;28;20046;-89
2022/04/18 04:46:09;;;;;;;19.48;12.25;;;6.60;91.00;;;;;;4975080;28;20411;-89
2022/04/18 04:48:34;;;;;;;19.98;11.63;;;6.60;91.10;;;;;;4989478;28;20539;-89
2022/04/18 04:51:01;;;;;;;19.23;11.77;;;6.60;91.20;;;;;;4990669;28;20582;-88
2022/04/18 04:53:27;;;;;;;20.05;11.90;;;6.60;91.50;;;;;;4991633;28;20121;-88
2022/04/18 04:55:52;;;;;;;19.75;10.95;;;6.60;91.40;;;;;;4991680;28;20117;-89
2022/04/18 04:58:18;;;;;;;20.25;11.80;;;6.60;91.50;;;;;;4991817;28;20496;-89
2022/04/18 05:00:43;;;;;;;19.17;11.10;;;6.60;91.60;;;;;;4972843;28;20077;-89
2022/04/18 05:03:09;;;;;;;19.00;11.27;;;6.60;91.60;;;;;;4991063;28;20110;-88
2022/04/18 05:05:35;;;;;;;18.10;11.25;;;6.60;91.80;;;;;;4991507;28;20042;-88
2022/04/18 05:08:01;;;;;;;18.73;12.15;;;6.60;92.10;;;;;;4991159;28;20093;-89
2022/04/18 05:10:27;;;;;;;20.77;12.43;;;6.60;92.40;;;;;;4974449;28;20412;-89
2022/04/18 05:12:52;;;;;;;21.23;11.55;;;6.60;92.50;;;;;;4991592;28;20487;-89
2022/04/18 05:15:19;;;;;;;20.25;11.77;;;6.60;92.60;;;;;;4958480;28;20520;-88
2022/04/18 05:17:44;;;;;;;17.80;11.45;;;6.60;92.60;;;;;;4983105;28;20130;-89
2022/04/18 05:20:11;;;;;;;19.40;12.18;;;6.70;92.70;;;;;;4990235;28;20543;-89
2022/04/18 05:22:36;;;;;;;21.15;12.48;;;6.70;92.60;;;;;;4974650;28;20038;-89
2022/04/18 05:25:02;;;;;;;20.55;12.05;;;6.70;92.70;;;;;;4974876;28;20044;-89
2022/04/18 05:27:28;;;;;;;21.33;13.15;;;6.70;92.80;;;;;;4991325;28;20081;-88
2022/04/18 05:29:54;;;;;;;20.90;13.25;;;6.80;93.00;;;;;;4990292;28;20082;-88
2022/04/18 05:32:19;;;;;;;21.17;13.07;;;6.80;93.30;;;;;;4990926;28;20046;-88
2022/04/18 05:34:45;;;;;;;20.55;12.75;;;6.80;93.10;;;;;;4974474;28;20416;-88
2022/04/18 05:37:10;;;;;;;22.15;12.65;;;6.90;93.30;;;;;;4992277;28;20579;-88
2022/04/18 05:39:36;;;;;;;22.20;12.65;;;6.90;93.10;;;;;;4990671;28;20496;-89
2022/04/18 05:42:03;;;;;;;21.65;12.82;;;7.00;93.00;;;;;;4988394;28;20034;-88
2022/04/18 05:44:31;;;;;;;19.30;12.10;;;7.00;93.00;;;;;;4991122;28;20048;-88
2022/04/18 05:46:57;;;;;;;21.13;11.73;;;7.10;93.10;;;;;;4990843;28;20038;-88
2022/04/18 05:49:23;;;;;;;19.48;11.43;;;7.10;93.00;;;;;;4990777;28;20035;-88
2022/04/18 05:51:48;;;;;;;22.23;13.32;;;7.10;92.60;;;;;;4983793;28;20061;-89
2022/04/18 05:54:14;;;;;;;20.05;11.82;;;7.20;92.50;;;;;;4971791;28;20065;-88
2022/04/18 05:56:40;;;;;;;18.25;11.38;;;7.30;92.50;;;;;;4990447;28;20131;-89
2022/04/18 05:59:05;;;;;;;20.33;11.75;;;7.30;92.50;;;;;;4990439;28;20440;-88
2022/04/18 06:01:31;;;;;;;21.60;11.68;;;7.40;92.40;;;;;;4974102;28;20038;-88
2022/04/18 06:03:56;;;;;;;21.63;11.63;;;7.50;92.40;;;;;;4989252;28;20097;-88
2022/04/18 06:06:22;;;;;;;18.17;11.77;;;7.60;92.30;;;;;;4974769;28;20034;-88
2022/04/18 06:08:48;;;;;;;18.33;11.55;;;7.60;92.30;;;;;;4990287;28;20066;-89
2022/04/18 06:11:13;;;;;;;17.65;10.07;;;7.70;92.20;;;;;;4990260;28;20069;-89
2022/04/18 06:13:39;;;;;;;16.17;10.20;;;7.80;92.20;;;;;;4967043;28;20042;-89
2022/04/18 06:16:06;;;;;;;15.65;9.70;;;7.80;92.00;;;;;;4991605;28;20764;-89
2022/04/18 06:18:32;;;;;;;15.05;9.57;;;7.90;91.60;;;;;;4974705;28;20030;-89
2022/04/18 06:20:57;;;;;;;16.33;9.68;;;8.00;91.30;;;;;;4986984;28;20049;-90
2022/04/18 06:23:23;;;;;;;15.85;8.95;;;8.10;91.20;;;;;;4973948;28;20030;-90
2022/04/18 06:25:49;;;;;;;17.30;9.93;;;8.20;91.10;;;;;;4975234;28;20038;-90
2022/04/18 06:28:14;;;;;;;17.25;9.88;;;8.30;91.00;;;;;;4994021;28;20492;-90
2022/04/18 06:30:40;;;;;;;19.23;9.80;;;8.30;90.70;;;;;;4977231;28;20042;-90
2022/04/18 06:33:10;;;;;;;15.45;9.63;;;8.40;90.60;;;;;;4976866;28;20121;-90
2022/04/18 06:35:36;;;;;;;14.75;9.63;;;8.50;90.80;;;;;;4991281;28;20056;-90
2022/04/18 06:38:01;;;;;;;15.48;9.32;;;8.60;90.70;;;;;;4994367;28;20034;-90
2022/04/18 06:40:27;;;;;;;15.80;9.45;;;8.70;90.50;;;;;;4977386;28;20518;-90
2022/04/18 06:42:52;;;;;;;16.42;9.73;;;8.80;90.30;;;;;;4992939;28;20092;-90
2022/04/18 06:45:18;;;;;;;15.80;10.35;;;8.90;90.10;;;;;;4985184;28;20054;-90
2022/04/18 06:47:44;;;;;;;18.30;9.63;;;9.00;90.10;;;;;;4992742;28;20073;-91
2022/04/18 06:50:12;;;;;;;15.18;9.68;;;9.00;90.10;;;;;;4976157;28;20034;-90
2022/04/18 06:52:44;;;;;;;16.00;10.20;;;9.20;90.10;;;;;;4992587;28;20526;-90
2022/04/18 06:55:10;;;;;;;15.70;9.07;;;9.30;90.30;;;;;;4991463;28;20093;-90
2022/04/18 06:57:35;;;;;;;14.90;8.95;;;9.40;89.60;;;;;;4976496;28;20125;-89
2022/04/18 07:00:03;;;;;;;14.40;8.50;;;9.50;89.00;;;;;;4992845;28;20112;-89
2022/04/18 07:02:29;;;;;;;13.82;8.38;;;9.60;87.40;;;;;;4993541;28;20579;-89
2022/04/18 07:04:54;;;;;;;13.38;7.72;;;9.70;86.10;;;;;;4988143;28;20050;-90
2022/04/18 07:07:20;;;;;;;13.20;7.75;;;9.80;86.40;;;;;;4968443;28;20121;-90
2022/04/18 07:09:46;;;;;;;13.98;8.23;;;9.90;85.10;;;;;;4992982;28;20041;-90
2022/04/18 07:12:11;;;;;;;13.38;8.25;;;10.00;83.70;;;;;;4976498;28;20097;-90
2022/04/18 07:14:38;;;;;;;14.80;8.68;;;10.10;83.60;;;;;;4977011;28;20053;-89
2022/04/18 07:17:04;;;;;;;14.73;9.00;;;10.20;83.00;;;;;;4978571;28;20056;-90
2022/04/18 07:19:31;;;;;;;14.63;7.88;;;10.30;82.70;;;;;;4992090;28;20070;-90
2022/04/18 07:21:57;;;;;;;13.95;8.43;;;10.40;81.60;;;;;;4976650;28;20049;-90
2022/04/18 07:24:23;;;;;;;13.95;8.15;;;10.50;81.70;;;;;;4993332;28;20053;-90
2022/04/18 07:26:49;;;;;;;13.55;8.38;;;10.60;80.20;;;;;;4992642;28;20035;-90
2022/04/18 07:29:15;;;;;;;13.05;8.30;;;10.70;81.40;;;;;;4992455;28;20089;-90
2022/04/18 07:31:40;;;;;;;14.43;8.35;;;10.80;79.70;;;;;;4992708;28;20030;-90
2022/04/18 07:34:06;;;;;;;13.50;7.97;;;10.90;79.30;;;;;;4993072;28;20097;-90
2022/04/18 07:36:32;;;;;;;14.93;7.95;;;11.00;78.20;;;;;;4976482;28;20510;-90
2022/04/18 07:38:57;;;;;;;13.38;8.05;;;11.10;77.00;;;;;;4977691;28;20073;-91
2022/04/18 07:41:25;;;;;;;13.50;7.90;;;11.20;77.00;;;;;;5004011;28;20041;-89
2022/04/18 07:43:52;;;;;;;13.15;8.70;;;11.30;76.40;;;;;;4997920;28;20050;-90
2022/04/18 07:46:18;;;;;;;13.05;8.38;;;11.40;77.20;;;;;;4993264;28;20046;-90
2022/04/18 07:48:45;;;;;;;14.45;8.70;;;11.60;77.90;;;;;;4991806;28;20064;-89
2022/04/18 07:53:56;;;;;;;12.82;7.38;;;11.80;76.90;;;;;;4986059;28;20042;-90
2022/04/18 07:56:21;;;;;;;13.40;7.90;;;11.90;74.10;;;;;;4976271;28;20480;-90
2022/04/18 07:58:47;;;;;;;13.60;7.43;;;12.00;72.00;;;;;;4990727;28;20069;-90
2022/04/18 08:01:13;;;;;;;12.93;7.43;;;12.10;73.10;;;;;;4992194;28;20042;-89
2022/04/18 08:03:39;;;;;;;12.15;6.90;;;12.20;70.80;;;;;;4976111;28;20619;-89
2022/04/18 08:06:05;;;;;;;12.43;6.50;;;12.20;69.10;;;;;;4976424;28;20038;-90
2022/04/18 08:08:31;;;;;;;14.05;7.15;;;12.30;69.40;;;;;;4990790;28;20424;-90
2022/04/18 08:11:00;;;;;;;11.75;7.55;;;12.40;68.00;;;;;;4975638;28;20544;-90
2022/04/18 08:13:26;;;;;;;12.07;7.43;;;12.50;68.20;;;;;;4992171;28;20138;-90
2022/04/18 08:15:53;;;;;;;12.75;7.63;;;12.60;68.80;;;;;;4976132;28;20046;-90
2022/04/18 08:18:19;;;;;;;11.65;7.50;;;12.70;68.20;;;;;;4974397;28;20042;-91
2022/04/18 08:20:45;;;;;;;12.93;7.57;;;12.80;67.80;;;;;;4991574;28;20094;-90
2022/04/18 08:23:11;;;;;;;12.27;7.45;;;12.90;67.00;;;;;;4991812;28;20041;-91
2022/04/18 08:25:37;;;;;;;13.25;7.63;;;13.00;66.20;;;;;;4988970;28;20043;-90
2022/04/18 08:28:02;;;;;;;11.10;7.32;;;13.10;66.50;;;;;;4972801;28;20034;-91
2022/04/18 08:30:28;;;;;;;14.05;8.07;;;13.10;66.60;;;;;;4991612;28;20040;-90
2022/04/18 08:32:54;;;;;;;12.85;7.93;;;13.30;65.50;;;;;;4989649;28;20124;-90
2022/04/18 08:35:20;;;;;;;13.50;8.45;;;13.40;64.60;;;;;;4991065;28;20488;-90
2022/04/18 08:37:46;;;;;;;15.45;7.95;;;13.50;64.30;;;;;;4975406;28;20046;-90
2022/04/18 08:40:12;;;;;;;12.48;7.53;;;13.50;63.00;;;;;;4991283;28;20042;-90
2022/04/18 08:42:39;;;;;;;12.25;7.75;;;13.60;62.10;;;;;;4958832;28;20050;-91
2022/04/18 08:45:10;;;;;;;11.18;7.05;;;13.60;63.60;;;;;;4991813;28;20054;-91
2022/04/18 08:53:11;;;;;;;12.20;7.35;;;14.00;62.30;;;;;;4991534;28;20137;-91
2022/04/18 08:55:37;;;;;;;10.93;6.90;;;14.10;61.50;;;;;;4975653;28;20038;-91
2022/04/18 08:58:06;;;;;;;11.15;6.90;;;14.20;60.40;;;;;;4985936;28;20030;-89
2022/04/18 09:00:32;;;;;;;11.57;6.60;;;14.30;59.50;;;;;;4986388;28;20042;-90
2022/04/18 09:02:58;;;;;;;11.82;6.80;;;14.40;58.90;;;;;;4977065;28;20034;-90
2022/04/18 09:05:23;;;;;;;10.35;6.22;;;14.40;58.70;;;;;;4976417;28;20050;-91
2022/04/18 09:07:59;;;;;;;11.38;6.75;;;14.50;58.60;;;;;;4976791;28;20407;-90
2022/04/18 09:10:25;;;;;;;14.48;6.90;;;14.70;60.50;;;;;;4991048;28;20030;-90
2022/04/18 09:12:51;;;;;;;11.63;7.25;;;14.80;58.90;;;;;;4991615;28;20046;-90
2022/04/18 09:15:49;;;;;;;11.73;6.75;;;14.90;57.70;;;;;;4993321;28;20074;-90
2022/04/18 09:18:20;;;;;;;10.02;6.40;;;15.00;59.20;;;;;;4990090;28;20056;-90
2022/04/18 09:20:45;;;;;;;11.23;6.68;;;15.10;58.10;;;;;;5001451;28;20042;-90
2022/04/18 09:23:33;;;;;;;10.45;6.50;;;15.20;58.40;;;;;;4990676;28;20093;-90
2022/04/18 09:26:06;;;;;;;10.45;6.15;;;15.30;55.90;;;;;;4991603;28;20240;-90
2022/04/18 09:28:38;;;;;;;12.00;6.30;;;15.30;55.20;;;;;;4990783;28;20069;-90
2022/04/18 09:31:09;;;;;;;10.48;6.28;;;15.40;54.80;;;;;;4990379;28;20038;-90
2022/04/18 09:33:38;;;;;;;10.38;6.13;;;15.50;54.10;;;;;;4991351;28;20129;-91
2022/04/18 09:36:18;;;;;;;11.60;6.45;;;15.60;54.70;;;;;;4974410;28;20079;-90
2022/04/18 09:38:46;;;;;;;11.63;6.30;;;15.70;55.00;;;;;;4974689;28;20054;-91
2022/04/18 09:41:13;;;;;;;10.18;6.32;;;15.80;55.10;;;;;;4988187;28;20069;-90
2022/04/18 09:43:45;;;;;;;10.20;6.00;;;15.90;54.40;;;;;;4965215;28;20153;-90
2022/04/18 09:46:12;;;;;;;8.98;5.78;;;16.10;53.20;;;;;;4974665;28;20053;-90
2022/04/18 09:48:39;;;;;;;9.93;6.05;;;16.20;53.00;;;;;;4973936;28;20117;-90
2022/04/18 09:51:24;;;;;;;10.60;6.13;;;16.30;51.70;;;;;;4990352;28;20531;-90
2022/04/18 09:53:52;;;;;;;9.05;5.70;;;16.40;50.60;;;;;;4990316;28;20042;-90
2022/04/18 09:56:21;;;;;;;10.45;6.00;;;16.40;51.10;;;;;;4974756;28;20682;-90
2022/04/18 09:58:47;;;;;;;10.98;5.95;;;16.50;53.40;;;;;;4974171;28;20046;-90
2022/04/18 10:01:13;;;;;;;9.52;5.57;;;16.60;51.20;;;;;;4992634;28;20038;-90
2022/04/18 10:03:41;;;;;;;9.10;5.85;;;16.70;51.20;;;;;;4994516;28;20039;-90
2022/04/18 10:06:08;;;;;;;10.45;5.70;;;16.70;50.30;;;;;;4994659;28;20048;-90
2022/04/18 10:08:35;;;;;;;8.77;5.50;;;16.80;49.10;;;;;;4994563;28;20038;-90
2022/04/18 10:11:04;;;;;;;9.90;6.05;;;16.80;48.40;;;;;;4993971;28;20034;-90
2022/04/18 10:13:31;;;;;;;9.77;5.82;;;16.90;49.00;;;;;;5000898;28;20048;-90
2022/04/18 10:15:58;;;;;;;9.30;5.72;;;17.00;50.70;;;;;;4984167;28;20053;-91
2022/04/18 10:18:24;;;;;;;10.75;5.90;;;17.10;49.70;;;;;;5005876;28;20034;-90
2022/04/18 10:21:18;;;;;;;9.65;5.40;;;17.20;48.30;;;;;;4994088;28;20046;-90
2022/04/18 10:24:04;;;;;;;11.15;5.82;;;17.20;47.10;;;;;;4961138;28;20061;-90
2022/04/18 10:26:48;;;;;;;9.85;5.57;;;17.40;47.40;;;;;;4994617;28;20126;-92
2022/04/18 10:29:25;;;;;;;10.10;5.30;;;17.50;48.20;;;;;;4994150;28;20415;-91
2022/04/18 10:31:52;;;;;;;9.93;5.57;;;17.60;49.40;;;;;;4993891;28;20500;-91
2022/04/18 10:34:22;;;;;;;10.18;4.82;;;17.80;48.00;;;;;;4996322;28;20053;-91
2022/04/18 10:36:52;;;;;;;8.70;4.80;;;17.80;46.60;;;;;;5001922;28;20030;-90
2022/04/18 10:39:19;;;;;;;9.07;4.82;;;17.90;45.50;;;;;;5005409;28;20066;-91
2022/04/18 10:41:51;;;;;;;9.63;5.15;;;17.90;44.60;;;;;;4977326;28;20031;-91
2022/04/18 10:44:18;;;;;;;9.27;5.18;;;18.00;44.90;;;;;;4993484;28;20117;-90
2022/04/18 10:46:55;;;;;;;9.07;5.43;;;18.10;45.20;;;;;;4993962;28;20045;-91
2022/04/18 10:49:30;;;;;;;9.60;4.65;;;18.20;47.70;;;;;;4993840;28;20050;-90
2022/04/18 10:51:56;;;;;;;9.18;4.75;;;18.40;45.20;;;;;;4972295;28;20526;-90
2022/04/18 10:54:33;;;;;;;9.20;5.05;;;18.50;44.50;;;;;;4993901;28;20085;-92
2022/04/18 10:57:17;;;;;;;8.10;4.80;;;18.60;44.20;;;;;;4993519;28;20053;-90
2022/04/18 10:59:45;;;;;;;9.07;5.10;;;18.70;43.40;;;;;;4977384;28;20447;-90
2022/04/18 11:02:42;;;;;;;8.93;4.93;;;18.80;43.30;;;;;;4993170;28;20472;-90
2022/04/18 11:05:08;;;;;;;9.23;5.18;;;18.80;43.70;;;;;;4993446;28;20054;-91
2022/04/18 11:07:38;;;;;;;7.90;4.50;;;18.80;42.60;;;;;;4993297;28;20030;-90
2022/04/18 11:10:20;;;;;;;8.57;4.70;;;18.80;41.80;;;;;;4974719;28;20031;-91
2022/04/18 11:12:46;;;;;;;8.67;4.87;;;18.80;41.10;;;;;;4992307;28;20104;-91
2022/04/18 11:15:11;;;;;;;8.95;4.82;;;18.80;42.30;;;;;;4993638;28;20296;-91
2022/04/18 11:17:41;;;;;;;9.82;5.60;;;19.00;42.70;;;;;;4993664;28;20045;-91
2022/04/18 11:20:32;;;;;;;11.88;5.60;;;19.10;42.80;;;;;;4993332;28;20046;-90
2022/04/18 11:23:26;;;;;;;9.25;5.22;;;19.40;43.50;;;;;;4993417;28;20049;-91
2022/04/18 11:25:54;;;;;;;;;;;19.60;42.60;;;;;;4977799;28;20054;-91
2022/04/18 11:28:20;;;;;;;9.70;5.78;;;19.60;41.00;;;;;;4976782;28;19921;-91
2022/04/18 11:30:46;;;;;;;10.35;5.40;;;19.70;42.60;;;;;;4993442;28;20081;-91
2022/04/18 11:33:12;;;;;;;9.25;5.75;;;19.80;42.20;;;;;;4976929;28;20117;-90
2022/04/18 11:35:37;;;;;;;8.73;5.22;;;19.90;41.90;;;;;;4976630;28;20500;-91
2022/04/18 11:38:08;;;;;;;8.98;4.97;;;20.00;42.60;;;;;;4976755;28;20038;-90
2022/04/18 11:40:38;;;;;;;10.00;5.53;;;20.20;42.20;;;;;;4992912;28;20121;-91
2022/04/18 11:43:15;;;;;;;9.73;5.78;;;20.20;42.00;;;;;;4992733;28;20038;-91
2022/04/18 11:45:41;;;;;;;8.40;5.00;;;20.40;41.10;;;;;;4992814;28;20049;-91
2022/04/18 11:48:07;;;;;;;7.90;4.72;;;20.60;39.70;;;;;;4992445;28;20038;-91
2022/04/18 11:50:36;;;;;;;8.02;4.38;;;20.80;39.80;;;;;;4975517;28;20041;-90
2022/04/18 11:53:06;;;;;;;8.85;4.75;;;20.90;40.00;;;;;;4992076;28;20129;-90
2022/04/18 11:55:48;;;;;;;9.38;5.30;;;21.20;38.90;;;;;;4991587;28;20041;-90
2022/04/18 11:58:19;;;;;;;8.70;4.93;;;21.40;38.20;;;;;;4978204;28;20563;-90
2022/04/18 12:09:09;;;;;;;8.90;5.30;;;21.90;38.20;;;;;;4981242;28;20046;-91
2022/04/18 12:11:36;;;;;;;8.45;5.43;;;21.80;36.90;;;;;;5007379;28;20064;-91
2022/04/18 12:14:02;;;;;;;9.50;5.78;;;21.80;37.40;;;;;;4995700;28;20042;-91
2022/04/18 12:16:30;;;;;;;8.77;5.28;;;21.80;37.50;;;;;;5012017;28;20483;-91
2022/04/18 12:18:56;;;;;;;9.02;4.88;;;22.00;37.70;;;;;;4993091;28;20593;-91
2022/04/18 12:21:24;;;;;;;8.93;4.90;;;22.10;39.50;;;;;;4991648;28;20443;-91
2022/04/18 12:24:00;;;;;;;9.05;5.40;;;22.30;38.40;;;;;;4992423;28;20653;-91
2022/04/18 12:26:33;;;;;;;8.70;5.32;;;22.60;36.10;;;;;;4975853;28;20034;-91
2022/04/18 12:29:12;;;;;;;8.68;5.10;;;22.80;37.30;;;;;;4992611;28;20038;-91
2022/04/18 12:31:42;;;;;;;9.10;5.13;;;22.90;36.90;;;;;;4975776;28;20085;-91
2022/04/18 12:34:19;;;;;;;8.48;5.45;;;22.90;35.50;;;;;;4991933;28;20045;-91
2022/04/18 12:36:54;;;;;;;9.10;4.90;;;22.80;35.00;;;;;;4991367;28;20038;-91
2022/04/18 12:39:25;;;;;;;9.05;4.82;;;22.80;35.20;;;;;;4956978;28;20035;-91
2022/04/18 12:42:00;;;;;;;8.57;5.00;;;22.80;36.30;;;;;;4967803;28;20035;-91
2022/04/18 12:44:27;;;;;;;9.57;5.60;;;22.90;36.70;;;;;;4992123;28;20034;-91
2022/04/18 12:46:54;;;;;;;9.10;4.88;;;22.90;35.30;;;;;;4991031;28;20061;-91
2022/04/18 12:49:19;;;;;;;8.27;5.03;;;22.80;34.50;;;;;;4974293;28;20405;-91
2022/04/18 12:51:50;;;;;;;8.88;5.03;;;22.80;34.00;;;;;;4975144;28;20049;-91
2022/04/18 12:54:19;;;;;;;10.00;5.43;;;23.00;34.30;;;;;;4991637;28;20038;-91
2022/04/18 12:56:46;;;;;;;9.50;4.80;;;23.00;34.60;;;;;;4991707;28;20717;-90
2022/04/18 12:59:14;;;;;;;8.48;5.00;;;23.10;34.50;;;;;;4975016;28;20522;-92
2022/04/18 13:01:40;;;;;;;8.13;4.75;;;23.20;34.80;;;;;;4990957;28;20124;-91
2022/04/18 13:04:26;;;;;;;8.02;4.47;;;23.20;33.90;;;;;;4991038;28;20519;-92
2022/04/18 13:06:56;;;;;;;8.32;4.72;;;23.30;34.50;;;;;;4990792;28;20042;-91
2022/04/18 13:09:22;;;;;;;8.90;4.82;;;23.50;35.20;;;;;;4991500;28;20526;-92
2022/04/18 13:11:49;;;;;;;7.95;4.47;;;24.00;34.80;;;;;;4975280;28;20085;-91